Aul Turara Ryskulova, Kazakhstan

12:44 PM ALMT on August 20, 2014 (GMT +0600)
Shymkent | Change Station
CLOSE
Current Station
Airport
Location: Shymkent,
Elevation: 1385 ft
Nearby Weather Stations

Elev 1385 ft 42.37 °N, 69.48 °E | Updated 14 minutes ago

Clear
Clear
95 °F
Feels Like 95 °F
N
9
Wind Variable Wind from East
Gusts 20 mph

Today
High -- | Low -- °F
--% Chance of Precip.
Yesterday
High -- | Low -- °F
Precip. -- in
6:30 AM 8:13 PM
Waning Crescent, 24% visible
Pressure 29.89 in
Visibility -9999.0 miles
Clouds
Dew Point 30 °F
Humidity 10%
Rainfall 0.00 in
Snow Depth Not available.
UV Not available.
Pollen Not available.
Air Quality Not available.
Flu Activity Not available.
METAR UAII 200630Z 09004G09MPS CAVOK 35/M01 Q1012 R10/0///70 NOSIG RMK QFE723/0965

More Conditions Fewer Conditions

Pressure 29.89 in
Visibility -9999.0 miles
Clouds
Dew Point 30 °F
Humidity 10%
Rainfall 0.00 in
Snow Depth Not available.
UV Not available.
Pollen Not available.
Air Quality Not available.
Flu Activity Not available.
METAR UAII 200630Z 09004G09MPS CAVOK 35/M01 Q1012 R10/0///70 NOSIG RMK QFE723/0965

More Conditions Fewer Conditions

10-Day Weather Forecast

Almanac

Astronomy

Aug. 20, 2014 Rise Set
Actual Time 6:30 AM ALMT 8:13 PM ALMT
Civil Twilight 6:00 AM ALMT 8:42 PM ALMT
Nautical Twilight 5:24 AM ALMT 9:19 PM ALMT
Astronomical Twilight 4:45 AM ALMT 9:58 PM ALMT
Moon 1:46 AM ALMT 4:39 PM ALMT
Length of Visible Light 14h 42m
Length of Day
13h 42m
Tomorrow will be 2m 37s shorter.
Waning Crescent, 24% of the Moon is Illuminated
Today
Waning Crescent
Aug 25
New
Sep 2
First Quarter
Sep 8
Full
Sep 15
Last Quarter

Yesterday's Extremes

Country Highs Country Lows

Community

WunderPhotos

Upload Photos

1,745,592 photos uploaded!

Nearby

Snow Depth

Not available.

Earthquake Activity

City Distance Mag. Time & Date
No recent earthquake activity has been reported nearby.
Minimum magnitude displayed is 2.5.

Coastal Water Temperatures

Place Temperature
No Stations Reporting

Nearby Weather Stations